Time;durP1;ratioP1;P1;durP2;ratioP2;P2;SDS_P1;SDS_P2;PMS_P1;PMS_P2;Temp;Humidity;BMP_temperature;BMP_pressure;BME280_temperature;BME280_humidity;BME280_pressure;Samples;Min_cycle;Max_cycle;Signal;HPM_P1;HPM_P2
2023/09/30 00:02:04;;;;;;;28.42;17.60;;;;;;;11.18;100.00;102382.50;5071516;28;20028;-65
2023/09/30 00:04:30;;;;;;;25.13;17.27;;;;;;;11.16;100.00;102391.09;5071231;28;20420;-65
2023/09/30 00:06:55;;;;;;;24.20;16.35;;;;;;;11.17;100.00;102391.91;5054110;28;20025;-65
2023/09/30 00:09:21;;;;;;;26.02;17.42;;;;;;;11.19;100.00;102384.97;5053612;28;20461;-64
2023/09/30 00:11:47;;;;;;;26.17;17.73;;;;;;;11.22;100.00;102389.16;5054015;28;20465;-64
2023/09/30 00:14:12;;;;;;;28.02;17.50;;;;;;;11.21;100.00;102385.53;5053908;28;20037;-64
2023/09/30 00:16:37;;;;;;;27.35;18.60;;;;;;;11.20;100.00;102380.28;5053686;28;20043;-64
2023/09/30 00:19:03;;;;;;;27.35;18.67;;;;;;;11.17;100.00;102398.28;5066579;28;20461;-64
2023/09/30 00:21:29;;;;;;;27.08;18.40;;;;;;;11.18;100.00;102399.13;5065036;28;20032;-64
2023/09/30 00:23:54;;;;;;;28.20;18.85;;;;;;;11.19;100.00;102400.78;5036552;28;20059;-64
2023/09/30 00:26:22;;;;;;;25.63;17.65;;;;;;;11.18;100.00;102394.44;5072868;28;20506;-64
2023/09/30 00:28:47;;;;;;;26.27;18.50;;;;;;;11.17;100.00;102400.22;5073332;28;20032;-64
2023/09/30 00:31:12;;;;;;;27.40;17.60;;;;;;;11.14;100.00;102390.53;5067020;28;20040;-65
2023/09/30 00:33:38;;;;;;;27.60;18.30;;;;;;;11.15;100.00;102394.09;5053213;28;20056;-66
2023/09/30 00:36:10;;;;;;;27.80;18.67;;;;;;;11.12;100.00;102387.19;5066523;28;20067;-64
2023/09/30 00:38:36;;;;;;;27.88;19.50;;;;;;;11.11;100.00;102406.84;5073238;28;20020;-64
2023/09/30 00:41:02;;;;;;;30.30;19.35;;;;;;;11.09;100.00;102412.66;5073418;28;20044;-64
2023/09/30 00:43:27;;;;;;;29.48;19.63;;;;;;;11.08;100.00;102411.00;5073494;28;20429;-63
2023/09/30 00:46:10;;;;;;;27.98;18.77;;;;;;;11.05;100.00;102420.66;5073280;28;20028;-64
2023/09/30 00:48:37;;;;;;;26.73;19.65;;;;;;;11.06;100.00;102421.50;5064436;28;20109;-64
2023/09/30 00:51:03;;;;;;;27.95;19.25;;;;;;;11.08;100.00;102416.53;5059925;28;20174;-63
2023/09/30 00:53:29;;;;;;;26.88;19.45;;;;;;;11.06;100.00;102419.56;5054460;28;20028;-64
2023/09/30 00:55:56;;;;;;;28.92;20.20;;;;;;;11.03;100.00;102411.81;5072378;28;20174;-63
2023/09/30 00:58:25;;;;;;;28.65;20.23;;;;;;;11.02;100.00;102399.06;5070106;28;20479;-63
2023/09/30 01:00:52;;;;;;;26.45;18.90;;;;;;;11.01;100.00;102404.84;5072704;28;20031;-63
2023/09/30 01:03:18;;;;;;;29.08;19.65;;;;;;;11.02;100.00;102399.06;5057385;28;20377;-63
2023/09/30 01:05:44;;;;;;;29.27;20.10;;;;;;;10.99;100.00;102396.84;5057300;28;20468;-64
2023/09/30 01:08:09;;;;;;;26.90;20.20;;;;;;;10.97;100.00;102407.34;5052974;28;20100;-63
2023/09/30 01:10:35;;;;;;;27.38;20.08;;;;;;;10.99;100.00;102419.00;5052792;28;20353;-63
2023/09/30 01:13:00;;;;;;;26.67;19.73;;;;;;;10.93;100.00;102420.91;5053009;28;20029;-64
2023/09/30 01:15:29;;;;;;;29.23;20.88;;;;;;;10.91;100.00;102422.28;5052918;28;20485;-63
2023/09/30 01:17:54;;;;;;;29.75;20.65;;;;;;;10.89;100.00;102422.56;5051429;28;20035;-64
2023/09/30 01:20:22;;;;;;;28.85;21.17;;;;;;;10.88;100.00;102422.81;5052575;28;20029;-64
2023/09/30 01:22:47;;;;;;;28.20;19.63;;;;;;;10.88;100.00;102418.13;5072398;28;20052;-64
2023/09/30 01:25:12;;;;;;;26.65;19.92;;;;;;;10.88;100.00;102431.13;5067806;28;20024;-64
2023/09/30 01:27:38;;;;;;;27.33;20.02;;;;;;;10.89;100.00;102443.84;5052746;28;20416;-64
2023/09/30 01:30:03;;;;;;;27.63;20.85;;;;;;;10.89;100.00;102452.16;5056244;28;20127;-64
2023/09/30 01:32:29;;;;;;;27.92;20.33;;;;;;;10.91;100.00;102449.97;5071963;28;20028;-64
2023/09/30 01:34:54;;;;;;;27.00;19.73;;;;;;;10.92;100.00;102449.69;5060279;28;20035;-64
2023/09/30 01:37:19;;;;;;;30.23;20.70;;;;;;;10.91;100.00;102436.13;5072529;28;20108;-65
2023/09/30 01:39:45;;;;;;;28.92;20.10;;;;;;;10.91;100.00;102428.63;5054363;28;20060;-64
2023/09/30 01:42:11;;;;;;;28.38;20.75;;;;;;;10.91;100.00;102444.44;5061353;28;20045;-64
2023/09/30 01:44:36;;;;;;;27.88;20.92;;;;;;;10.91;100.00;102442.47;5052162;28;20107;-65
2023/09/30 01:47:01;;;;;;;26.90;21.25;;;;;;;10.88;100.00;102443.03;5052147;28;20020;-64
2023/09/30 01:49:26;;;;;;;28.90;21.85;;;;;;;10.89;100.00;102438.31;5069327;28;20456;-65
2023/09/30 01:51:52;;;;;;;28.00;20.60;;;;;;;10.88;100.00;102431.13;5072407;28;20029;-65
2023/09/30 01:54:18;;;;;;;26.90;20.42;;;;;;;10.91;100.00;102417.56;5071793;28;20032;-64
2023/09/30 01:56:43;;;;;;;27.83;19.95;;;;;;;10.89;100.00;102418.94;5072256;28;20135;-64
2023/09/30 01:59:08;;;;;;;31.02;21.23;;;;;;;10.92;100.00;102418.41;5055389;28;20032;-65
2023/09/30 02:01:34;;;;;;;29.98;21.27;;;;;;;10.92;100.00;102415.63;5058582;28;20112;-64
2023/09/30 02:03:59;;;;;;;25.65;20.13;;;;;;;10.90;100.00;102418.69;5070724;28;20108;-65
2023/09/30 02:06:24;;;;;;;29.95;21.38;;;;;;;10.87;100.00;102426.66;5070566;28;20032;-64
2023/09/30 02:08:49;;;;;;;27.70;20.98;;;;;;;10.85;100.00;102421.41;5072073;28;20056;-64
2023/09/30 02:11:16;;;;;;;29.08;21.42;;;;;;;10.82;100.00;102415.59;5071160;28;20479;-64
2023/09/30 02:13:42;;;;;;;27.52;20.70;;;;;;;10.81;100.00;102423.06;5053643;28;20029;-64
2023/09/30 02:16:14;;;;;;;28.13;20.98;;;;;;;10.83;100.00;102422.78;5061952;28;20029;-64
2023/09/30 02:18:41;;;;;;;30.40;21.25;;;;;;;10.85;100.00;102437.22;5052111;28;20063;-64
2023/09/30 02:21:08;;;;;;;28.70;21.20;;;;;;;10.87;100.00;102444.13;5057305;28;20040;-64
2023/09/30 02:23:34;;;;;;;28.40;21.73;;;;;;;10.87;100.00;102448.81;5052249;28;20070;-64
2023/09/30 02:26:00;;;;;;;29.58;21.48;;;;;;;10.87;100.00;102449.66;5058761;28;20024;-63
2023/09/30 02:28:25;;;;;;;27.40;20.15;;;;;;;10.84;100.00;102447.44;5061263;28;20035;-63
2023/09/30 02:30:50;;;;;;;30.27;21.45;;;;;;;10.84;100.00;102438.31;5051514;28;20043;-64
2023/09/30 02:33:15;;;;;;;27.70;20.95;;;;;;;10.81;100.00;102445.22;5063278;28;20082;-63
2023/09/30 02:35:45;;;;;;;27.90;21.30;;;;;;;10.80;100.00;102431.63;5051778;28;20173;-64
2023/09/30 02:38:11;;;;;;;28.20;20.67;;;;;;;10.79;100.00;102421.66;5068854;28;20078;-63
2023/09/30 02:40:36;;;;;;;27.17;21.42;;;;;;;10.76;100.00;102431.34;5071509;28;20148;-64
2023/09/30 02:43:02;;;;;;;27.90;21.17;;;;;;;10.71;100.00;102432.13;5063610;28;20463;-64
2023/09/30 02:45:27;;;;;;;27.65;19.98;;;;;;;10.70;100.00;102429.66;5060031;28;20427;-64
2023/09/30 02:47:52;;;;;;;28.98;21.20;;;;;;;10.67;100.00;102427.41;5054721;28;20106;-64
2023/09/30 02:50:18;;;;;;;29.17;21.27;;;;;;;10.62;100.00;102430.97;5071465;28;20037;-64
2023/09/30 02:52:43;;;;;;;29.30;21.67;;;;;;;10.58;100.00;102425.16;5072641;28;20028;-64
2023/09/30 02:55:10;;;;;;;27.73;21.08;;;;;;;10.59;100.00;102425.97;5074349;28;20039;-64
2023/09/30 02:57:37;;;;;;;28.30;21.05;;;;;;;10.54;100.00;102415.69;5075506;28;20021;-64
2023/09/30 03:00:20;;;;;;;29.15;21.65;;;;;;;10.54;100.00;102415.69;5066893;28;20075;-64
2023/09/30 03:02:46;;;;;;;29.65;21.25;;;;;;;10.53;100.00;102425.09;5072635;28;20028;-64
2023/09/30 03:05:11;;;;;;;30.15;22.00;;;;;;;10.53;100.00;102410.44;5074852;28;20035;-64
2023/09/30 03:07:38;;;;;;;28.98;21.10;;;;;;;10.51;100.00;102413.50;5073811;28;20472;-64
2023/09/30 03:10:08;;;;;;;29.38;21.08;;;;;;;10.56;100.00;102426.53;5074685;28;20024;-63
2023/09/30 03:12:34;;;;;;;30.88;21.85;;;;;;;10.52;100.00;102439.22;5074562;28;20090;-64
2023/09/30 03:14:59;;;;;;;29.05;22.35;;;;;;;10.54;100.00;102431.50;5055866;28;20045;-64
2023/09/30 03:17:25;;;;;;;30.92;22.08;;;;;;;10.55;100.00;102424.84;5067434;28;20032;-63
2023/09/30 03:19:51;;;;;;;28.20;21.73;;;;;;;10.58;100.00;102424.34;5055264;28;20029;-64
2023/09/30 03:22:16;;;;;;;28.70;21.73;;;;;;;10.62;100.00;102428.22;5067904;28;20055;-64
2023/09/30 03:24:42;;;;;;;30.75;21.77;;;;;;;10.63;100.00;102429.06;5064621;28;20032;-64
2023/09/30 03:27:08;;;;;;;30.42;23.10;;;;;;;10.63;100.00;102427.13;5056195;28;20047;-63
2023/09/30 03:29:36;;;;;;;28.80;21.48;;;;;;;10.63;100.00;102412.47;5074601;28;20048;-64
2023/09/30 03:32:01;;;;;;;29.02;22.33;;;;;;;10.66;100.00;102411.91;5071205;28;20021;-63
2023/09/30 03:34:28;;;;;;;29.33;22.33;;;;;;;10.67;100.00;102408.03;5064763;28;20333;-63
2023/09/30 03:36:55;;;;;;;31.88;21.45;;;;;;;10.66;100.00;102409.13;5061581;28;20094;-64
2023/09/30 03:39:26;;;;;;;27.50;21.33;;;;;;;10.71;100.00;102412.75;5071796;28;20029;-64
2023/09/30 03:41:54;;;;;;;28.25;20.58;;;;;;;10.74;100.00;102411.38;5054405;28;20110;-64
2023/09/30 03:44:19;;;;;;;28.30;20.33;;;;;;;10.74;100.00;102405.84;5064221;28;20031;-64
2023/09/30 03:46:44;;;;;;;27.50;20.10;;;;;;;10.73;100.00;102413.34;5067465;28;20025;-64
2023/09/30 03:49:10;;;;;;;29.65;20.67;;;;;;;10.71;100.00;102412.75;5067461;28;20112;-63
2023/09/30 03:51:37;;;;;;;29.40;20.45;;;;;;;10.69;100.00;102422.44;5066720;28;20020;-63
2023/09/30 03:54:02;;;;;;;29.83;20.52;;;;;;;10.68;100.00;102420.78;5055475;28;20055;-64
2023/09/30 03:56:28;;;;;;;27.58;20.98;;;;;;;10.68;100.00;102418.00;5063060;28;20096;-63
2023/09/30 03:58:53;;;;;;;30.85;20.60;;;;;;;10.63;100.00;102415.22;5066388;28;20380;-64
2023/09/30 04:01:19;;;;;;;28.25;20.85;;;;;;;10.61;100.00;102409.94;5059147;28;20029;-64
2023/09/30 04:03:45;;;;;;;29.70;20.70;;;;;;;10.55;100.00;102411.84;5069234;28;20070;-64
2023/09/30 04:06:10;;;;;;;28.70;21.40;;;;;;;10.54;100.00;102412.94;5061372;28;20024;-64
2023/09/30 04:08:36;;;;;;;28.13;21.00;;;;;;;10.52;100.00;102409.63;5065442;28;20024;-64
2023/09/30 04:11:05;;;;;;;28.10;21.42;;;;;;;10.51;100.00;102415.41;5053119;28;20498;-64
2023/09/30 04:13:30;;;;;;;28.83;20.90;;;;;;;10.52;100.00;102420.69;5065359;28;20025;-63
2023/09/30 04:15:58;;;;;;;29.95;21.92;;;;;;;10.50;100.00;102410.97;5073452;28;20036;-64
2023/09/30 04:18:25;;;;;;;29.85;21.58;;;;;;;10.48;100.00;102419.56;5054794;28;20456;-63
2023/09/30 04:20:54;;;;;;;30.00;21.83;;;;;;;10.48;100.00;102419.56;5060946;28;20040;-64
2023/09/30 04:23:20;;;;;;;28.77;21.70;;;;;;;10.44;100.00;102410.94;5069634;28;20021;-64
2023/09/30 04:25:46;;;;;;;29.60;21.83;;;;;;;10.42;100.00;102413.16;5067801;28;20028;-64
2023/09/30 04:28:13;;;;;;;29.65;21.98;;;;;;;10.40;100.00;102418.09;5072661;28;20031;-65
2023/09/30 04:30:39;;;;;;;29.48;22.08;;;;;;;10.38;100.00;102417.56;5072912;28;20078;-65
2023/09/30 04:33:04;;;;;;;31.27;22.15;;;;;;;10.37;100.00;102417.78;5059270;28;20024;-65
2023/09/30 04:35:30;;;;;;;29.75;21.23;;;;;;;10.36;100.00;102416.09;5058289;28;20037;-65
2023/09/30 04:37:57;;;;;;;26.83;21.65;;;;;;;10.35;100.00;102415.28;5064387;28;20101;-65
2023/09/30 04:40:22;;;;;;;31.48;21.75;;;;;;;10.35;100.00;102425.50;5060644;28;20061;-64
2023/09/30 04:42:48;;;;;;;28.60;21.83;;;;;;;10.31;100.00;102425.22;5061507;28;20086;-65
2023/09/30 04:45:16;;;;;;;29.10;21.13;;;;;;;10.29;100.00;102425.47;5072926;28;20028;-64
2023/09/30 04:47:44;;;;;;;28.85;21.83;;;;;;;10.26;100.00;102427.94;5063748;28;20132;-65
2023/09/30 04:50:11;;;;;;;28.73;22.10;;;;;;;10.23;100.00;102443.16;5072486;28;20412;-65
2023/09/30 04:52:38;;;;;;;29.73;21.67;;;;;;;10.21;100.00;102445.34;5066725;28;20099;-65
2023/09/30 04:55:04;;;;;;;29.08;21.35;;;;;;;10.17;100.00;102446.13;5064838;28;20093;-64
2023/09/30 04:57:30;;;;;;;27.95;21.55;;;;;;;10.16;100.00;102442.50;5063694;28;20025;-65
2023/09/30 04:59:55;;;;;;;29.58;22.17;;;;;;;10.17;100.00;102432.31;5065350;28;20024;-64
2023/09/30 05:02:20;;;;;;;29.23;21.80;;;;;;;10.15;100.00;102443.63;5066023;28;20032;-64
2023/09/30 05:04:46;;;;;;;31.58;21.98;;;;;;;10.14;100.00;102440.03;5064120;28;20099;-64
2023/09/30 05:07:13;;;;;;;28.38;21.65;;;;;;;10.14;100.00;102445.56;5067397;28;20468;-65
2023/09/30 05:09:38;;;;;;;30.70;22.50;;;;;;;10.14;100.00;102451.09;5046749;28;20028;-65
2023/09/30 05:12:04;;;;;;;31.80;23.00;;;;;;;10.14;100.00;102456.63;5068475;28;20463;-65
2023/09/30 05:14:29;;;;;;;31.48;21.77;;;;;;;10.13;100.00;102451.34;5064654;28;20091;-64
2023/09/30 05:16:56;;;;;;;30.02;22.23;;;;;;;10.11;100.00;102454.38;5066192;28;20040;-64
2023/09/30 05:19:21;;;;;;;32.15;23.55;;;;;;;10.08;100.00;102449.38;5064382;28;20056;-65
2023/09/30 05:21:47;;;;;;;29.30;23.10;;;;;;;10.06;100.00;102453.53;5064466;28;20292;-65
2023/09/30 05:24:12;;;;;;;31.95;23.83;;;;;;;10.06;100.00;102450.75;5066378;28;20134;-64
2023/09/30 05:26:38;;;;;;;33.55;24.15;;;;;;;10.05;100.00;102455.44;5061488;28;20020;-64
2023/09/30 05:29:03;;;;;;;30.40;23.63;;;;;;;10.06;100.00;102464.56;5067857;28;20129;-64
2023/09/30 05:31:29;;;;;;;33.85;24.55;;;;;;;10.06;100.00;102462.63;5061769;28;20033;-65
2023/09/30 05:33:55;;;;;;;32.05;24.15;;;;;;;10.05;100.00;102455.44;5048604;28;20388;-66
2023/09/30 05:36:21;;;;;;;32.38;24.08;;;;;;;10.06;100.00;102459.88;5063916;28;20028;-65
2023/09/30 05:38:47;;;;;;;32.17;24.25;;;;;;;10.05;100.00;102452.66;5065262;28;20035;-64
2023/09/30 05:41:14;;;;;;;30.25;23.60;;;;;;;10.04;100.00;102450.19;5066612;28;20325;-65
2023/09/30 05:43:39;;;;;;;31.42;23.75;;;;;;;10.07;100.00;102460.69;5065882;28;20021;-65
2023/09/30 05:46:06;;;;;;;33.72;24.58;;;;;;;10.02;100.00;102464.25;5061559;28;20440;-65
2023/09/30 05:48:32;;;;;;;31.80;23.58;;;;;;;10.06;100.00;102470.09;5064027;28;20160;-65
2023/09/30 05:50:57;;;;;;;32.72;23.38;;;;;;;10.05;100.00;102463.72;5065730;28;20107;-65
2023/09/30 05:53:22;;;;;;;30.70;21.50;;;;;;;10.10;100.00;102465.69;5063228;28;20120;-64
2023/09/30 05:55:48;;;;;;;32.13;22.90;;;;;;;10.13;100.00;102468.78;5062048;28;20083;-65
2023/09/30 05:58:15;;;;;;;34.05;22.70;;;;;;;10.16;100.00;102470.16;5063393;28;20078;-64
2023/09/30 06:00:41;;;;;;;32.58;23.05;;;;;;;10.20;100.00;102470.50;5066107;28;20028;-64
2023/09/30 06:03:07;;;;;;;33.63;23.58;;;;;;;10.24;100.00;102474.41;5062410;28;20025;-64
2023/09/30 06:05:33;;;;;;;34.25;22.48;;;;;;;10.27;100.00;102477.47;5064383;28;20163;-64
2023/09/30 06:08:02;;;;;;;33.35;22.40;;;;;;;10.33;100.00;102469.22;5064077;28;20020;-64
2023/09/30 06:10:28;;;;;;;32.35;23.15;;;;;;;10.35;100.00;102470.63;5061189;28;20108;-64
2023/09/30 06:12:54;;;;;;;32.55;23.02;;;;;;;10.40;100.00;102473.44;5068080;28;20207;-64
2023/09/30 06:15:21;;;;;;;34.03;22.42;;;;;;;10.45;100.00;102458.81;5065906;28;20154;-64
2023/09/30 06:17:49;;;;;;;31.23;21.63;;;;;;;10.47;100.00;102464.09;5061810;28;20036;-64
2023/09/30 06:20:18;;;;;;;31.55;21.63;;;;;;;10.50;100.00;102469.94;5064662;28;20056;-64
2023/09/30 06:22:45;;;;;;;32.58;22.55;;;;;;;10.51;100.00;102468.84;5065161;28;20037;-64
2023/09/30 06:25:12;;;;;;;33.13;22.92;;;;;;;10.57;100.00;102472.47;5065543;28;20024;-64
2023/09/30 06:27:37;;;;;;;34.40;22.73;;;;;;;10.62;100.00;102472.50;5065393;28;20071;-64
2023/09/30 06:30:04;;;;;;;34.05;23.20;;;;;;;10.67;100.00;102472.53;5067025;28;20045;-63
2023/09/30 06:32:30;;;;;;;31.92;22.73;;;;;;;10.72;100.00;102466.22;5068781;28;20032;-63
2023/09/30 06:34:55;;;;;;;30.20;22.38;;;;;;;10.77;100.00;102452.38;5070537;28;20032;-64
2023/09/30 06:37:20;;;;;;;32.55;23.63;;;;;;;10.77;100.00;102463.47;5069879;28;20048;-64
2023/09/30 06:39:48;;;;;;;34.10;22.95;;;;;;;10.80;100.00;102473.16;5068639;28;20025;-63
2023/09/30 06:42:13;;;;;;;31.77;23.48;;;;;;;10.82;100.00;102482.84;5069346;28;20104;-63
2023/09/30 06:44:39;;;;;;;34.90;23.80;;;;;;;10.83;100.00;102478.16;5069777;28;20485;-63
2023/09/30 06:47:05;;;;;;;33.30;23.52;;;;;;;10.85;100.00;102474.03;5067114;28;20104;-63
2023/09/30 06:49:33;;;;;;;32.28;23.58;;;;;;;10.87;100.00;102473.75;5072907;28;20036;-63
2023/09/30 06:51:59;;;;;;;32.92;24.30;;;;;;;10.91;100.00;102480.44;5066983;28;20024;-63
2023/09/30 06:54:24;;;;;;;34.15;23.90;;;;;;;10.93;100.00;102490.13;5055767;28;20033;-63
2023/09/30 06:56:49;;;;;;;35.35;25.00;;;;;;;10.96;100.00;102480.44;5044639;28;20111;-64
2023/09/30 06:59:15;;;;;;;36.47;23.90;;;;;;;11.00;100.00;102502.91;5066577;28;20028;-63
2023/09/30 07:01:40;;;;;;;35.47;23.83;;;;;;;11.08;100.00;102524.56;5067245;28;20037;-62
2023/09/30 07:04:06;;;;;;;35.90;25.63;;;;;;;11.15;100.00;102524.28;5064728;28;20044;-63
2023/09/30 07:06:31;;;;;;;30.75;23.13;;;;;;;11.22;100.00;102530.44;5065515;28;20127;-62
2023/09/30 07:08:57;;;;;;;34.85;24.60;;;;;;;11.30;100.00;102529.09;5060863;28;20109;-63
2023/09/30 07:11:29;;;;;;;34.85;23.48;;;;;;;11.39;100.00;102525.53;5066930;28;20039;-63
2023/09/30 07:13:56;;;;;;;34.38;22.92;;;;;;;11.50;100.00;102528.34;5061510;28;20044;-62
2023/09/30 07:16:21;;;;;;;33.65;23.15;;;;;;;11.60;100.00;102528.41;5053486;28;20385;-62
2023/09/30 07:18:46;;;;;;;34.95;22.80;;;;;;;11.68;100.00;102527.00;5057532;28;20039;-62
2023/09/30 07:21:13;;;;;;;31.95;22.58;;;;;;;11.81;100.00;102529.28;5065605;28;20037;-63
2023/09/30 07:23:38;;;;;;;33.25;22.08;;;;;;;11.92;100.00;102527.34;5072557;28;21929;-63
2023/09/30 07:26:03;;;;;;;34.03;22.73;;;;;;;12.06;100.00;102529.63;5065794;28;20032;-63
2023/09/30 07:28:29;;;;;;;32.88;22.27;;;;;;;12.20;100.00;102543.81;5054942;28;20025;-63
2023/09/30 07:30:55;;;;;;;32.95;21.50;;;;;;;12.35;100.00;102551.31;5054106;28;20378;-63
2023/09/30 07:33:20;;;;;;;32.08;21.73;;;;;;;12.49;100.00;102557.97;5055150;28;20500;-63
2023/09/30 07:35:46;;;;;;;32.42;22.02;;;;;;;12.60;100.00;102573.53;5074564;28;20034;-63
2023/09/30 07:38:11;;;;;;;30.65;21.20;;;;;;;12.71;100.00;102576.31;5056767;28;20059;-63
2023/09/30 07:40:36;;;;;;;32.05;22.20;;;;;;;12.78;100.00;102571.28;5073744;28;20040;-63
2023/09/30 07:43:02;;;;;;;32.72;21.67;;;;;;;12.86;100.00;102572.69;5073748;28;20441;-63
2023/09/30 07:45:27;;;;;;;30.02;21.23;;;;;;;12.97;100.00;102563.22;5074278;28;20029;-63
2023/09/30 07:47:53;;;;;;;30.83;21.40;;;;;;;13.05;100.00;102572.91;5074474;28;20029;-64
2023/09/30 07:50:18;;;;;;;29.77;22.30;;;;;;;13.16;100.00;102571.78;5073941;28;20020;-63
2023/09/30 07:52:45;;;;;;;36.13;21.52;;;;;;;13.26;100.00;102571.75;5074379;28;20031;-63
2023/09/30 07:55:10;;;;;;;30.98;20.50;;;;;;;13.37;100.00;102566.19;5074192;28;20021;-64
2023/09/30 07:57:36;;;;;;;33.65;21.05;;;;;;;13.43;100.00;102564.25;5073684;28;20498;-64
2023/09/30 08:00:08;;;;;;;28.63;19.80;;;;;;;13.50;100.00;102562.84;5074065;28;20028;-63
2023/09/30 08:02:33;;;;;;;32.10;19.88;;;;;;;13.53;100.00;102556.69;5073991;28;20024;-63
2023/09/30 08:05:02;;;;;;;28.88;19.95;;;;;;;13.50;100.00;102560.06;5073010;28;20166;-64
2023/09/30 08:07:27;;;;;;;29.67;19.23;;;;;;;13.46;100.00;102558.13;5065528;28;20196;-64
2023/09/30 08:09:53;;;;;;;30.85;19.85;;;;;;;13.42;100.00;102557.84;5060863;28;20421;-64
2023/09/30 08:12:19;;;;;;;32.00;21.05;;;;;;;13.43;100.00;102558.69;5062504;28;20123;-64
2023/09/30 08:14:44;;;;;;;29.45;20.52;;;;;;;13.51;100.00;102550.56;5054694;28;20372;-64
2023/09/30 08:17:10;;;;;;;31.75;21.23;;;;;;;13.65;100.00;102552.75;5064345;28;20396;-64
2023/09/30 08:19:36;;;;;;;32.90;20.67;;;;;;;13.68;100.00;102546.63;5053793;28;20029;-63
2023/09/30 08:22:03;;;;;;;31.77;20.55;;;;;;;13.76;100.00;102554.38;5039475;28;20479;-63
2023/09/30 08:24:29;;;;;;;29.00;20.00;;;;;;;13.86;100.00;102553.47;5053949;28;20145;-63
2023/09/30 08:26:55;;;;;;;34.92;21.27;;;;;;;13.97;100.00;102548.69;5059762;28;20530;-63
2023/09/30 08:29:21;;;;;;;32.33;20.83;;;;;;;14.03;100.00;102547.53;5068612;28;20103;-64
2023/09/30 08:31:46;;;;;;;29.45;19.48;;;;;;;14.11;100.00;102544.13;5065884;28;20108;-63
2023/09/30 08:34:14;;;;;;;28.30;19.55;;;;;;;14.20;100.00;102539.63;5062504;28;20125;-63
2023/09/30 08:36:40;;;;;;;30.38;19.30;;;;;;;14.27;100.00;102530.09;5055547;28;20468;-63
2023/09/30 08:39:06;;;;;;;28.70;19.33;;;;;;;14.28;100.00;102532.59;5052177;28;20083;-63
2023/09/30 08:41:33;;;;;;;28.30;19.90;;;;;;;14.33;100.00;102540.09;5053042;28;20045;-64
2023/09/30 08:44:03;;;;;;;30.85;20.13;;;;;;;14.38;100.00;102539.22;5064754;28;20116;-65
2023/09/30 08:46:33;;;;;;;30.40;18.55;;;;;;;14.45;100.00;102534.13;5053324;28;20036;-64
2023/09/30 08:49:03;;;;;;;29.10;18.77;;;;;;;14.50;100.00;102539.66;5061840;28;20081;-63
2023/09/30 08:51:29;;;;;;;29.45;19.23;;;;;;;14.59;100.00;102540.72;5055141;28;20120;-64
2023/09/30 08:53:56;;;;;;;28.02;18.42;;;;;;;14.69;100.00;102534.25;5057173;28;20472;-64
2023/09/30 08:56:26;;;;;;;28.85;18.70;;;;;;;14.78;100.00;102529.69;5060024;28;20029;-63
2023/09/30 08:58:53;;;;;;;29.10;18.85;;;;;;;14.88;100.00;102530.72;5054981;28;20033;-65
2023/09/30 09:01:19;;;;;;;30.25;19.27;;;;;;;14.94;100.00;102535.94;5052638;28;20384;-63
2023/09/30 09:03:44;;;;;;;28.88;19.65;;;;;;;15.01;100.00;102532.81;5052509;28;20104;-64
2023/09/30 09:06:09;;;;;;;26.95;18.85;;;;;;;15.06;100.00;102537.50;5051935;28;20381;-63
2023/09/30 09:08:34;;;;;;;27.73;18.85;;;;;;;15.15;100.00;102538.50;5051458;28;20116;-64
2023/09/30 09:11:00;;;;;;;30.63;18.85;;;;;;;15.22;100.00;102540.91;5052045;28;20056;-64
2023/09/30 09:13:26;;;;;;;28.77;18.00;;;;;;;15.27;100.00;102552.84;5052170;28;20059;-65
2023/09/30 09:16:10;;;;;;;26.90;19.08;;;;;;;15.38;100.00;102561.94;5052413;28;20094;-65
2023/09/30 09:18:36;;;;;;;29.65;18.98;;;;;;;15.40;100.00;102559.66;5052490;28;20036;-64
2023/09/30 09:21:12;;;;;;;27.90;17.75;;;;;;;15.47;100.00;102564.88;5052136;28;20025;-64
2023/09/30 09:23:47;;;;;;;25.10;15.98;;;;;;;15.54;100.00;102565.34;5052223;28;20511;-65
2023/09/30 09:26:35;;;;;;;24.35;15.73;;;;;;;15.63;100.00;102571.09;5052471;28;20527;-64
2023/09/30 09:29:03;;;;;;;26.38;16.08;;;;;;;15.67;100.00;102576.91;5034309;28;20330;-64
2023/09/30 09:31:30;;;;;;;23.67;15.43;;;;;;;15.73;100.00;102584.94;5034338;28;20036;-65
2023/09/30 09:33:57;;;;;;;23.90;15.90;;;;;;;15.77;100.00;102582.38;5051929;28;20021;-65
2023/09/30 09:36:39;;;;;;;24.55;16.20;;;;;;;15.87;100.00;102595.41;5051628;28;20476;-64
2023/09/30 09:39:04;;;;;;;25.23;15.43;;;;;;;15.92;100.00;102609.28;5052232;28;20040;-64
2023/09/30 09:41:29;;;;;;;22.90;15.27;;;;;;;16.00;100.00;102607.78;5065479;28;20050;-65
2023/09/30 09:43:58;;;;;;;26.70;15.75;;;;;;;16.04;100.00;102606.88;5072226;28;20060;-65
2023/09/30 09:46:25;;;;;;;25.48;15.27;;;;;;;16.13;100.00;102606.19;5071724;28;20052;-65
2023/09/30 09:48:53;;;;;;;24.52;15.82;;;;;;;16.22;100.00;102601.59;5072109;28;20472;-65
2023/09/30 09:51:21;;;;;;;24.17;15.38;;;;;;;16.27;100.00;102595.09;5071889;28;20032;-65
2023/09/30 09:53:49;;;;;;;24.08;15.52;;;;;;;16.31;100.00;102601.72;5068298;28;20035;-65
2023/09/30 09:56:15;;;;;;;23.88;15.23;;;;;;;16.36;100.00;102610.03;5060246;28;20094;-64
2023/09/30 09:58:44;;;;;;;26.17;15.93;;;;;;;16.36;100.00;102612.84;5059130;28;20483;-64
2023/09/30 10:01:10;;;;;;;24.60;15.30;;;;;;;16.40;100.00;102613.88;5062099;28;20143;-64
2023/09/30 10:03:38;;;;;;;26.08;15.02;;;;;;;16.44;100.00;102612.16;5071555;28;20526;-65
2023/09/30 10:06:05;;;;;;;23.58;15.13;;;;;;;16.46;100.00;102604.31;5074261;28;20024;-65
2023/09/30 10:08:39;;;;;;;26.40;15.68;;;;;;;16.47;100.00;102608.75;5066543;28;20075;-64
2023/09/30 10:11:05;;;;;;;28.13;15.30;;;;;;;16.48;100.00;102610.38;5055962;28;20025;-64
2023/09/30 10:13:50;;;;;;;25.27;15.45;;;;;;;16.55;100.00;102623.97;5038382;28;20087;-64
2023/09/30 10:16:37;;;;;;;24.77;15.40;;;;;;;16.59;100.00;102621.41;5067298;28;20028;-64
2023/09/30 10:19:12;;;;;;;29.42;16.08;;;;;;;16.62;100.00;102634.78;5055920;28;20029;-65
2023/09/30 10:21:39;;;;;;;32.50;19.88;;;;;;;16.67;100.00;102629.13;5056310;28;20074;-65
2023/09/30 10:24:28;;;;;;;35.22;24.10;;;;;;;16.72;100.00;102623.44;5055962;28;20029;-65
2023/09/30 10:27:21;;;;;;;27.35;17.00;;;;;;;16.79;100.00;102609.06;5065212;28;20028;-65
2023/09/30 10:29:47;;;;;;;40.43;21.10;;;;;;;16.81;100.00;102601.22;5063925;28;20050;-64
2023/09/30 10:32:13;;;;;;;29.70;19.13;;;;;;;16.86;100.00;102589.13;5075592;28;20729;-64
2023/09/30 10:34:39;;;;;;;29.25;16.77;;;;;;;16.87;100.00;102587.97;5067242;28;20044;-64
2023/09/30 10:37:24;;;;;;;24.05;15.65;;;;;;;16.97;100.00;102588.66;5058141;28;20025;-64
2023/09/30 10:40:09;;;;;;;26.10;16.05;;;;;;;16.99;100.00;102575.22;5063694;28;20082;-64
2023/09/30 10:42:49;;;;;;;28.80;16.90;;;;;;;17.05;100.00;102581.50;5067971;28;20029;-64
2023/09/30 10:45:38;;;;;;;25.08;15.63;;;;;;;17.15;100.00;102580.50;5067206;28;20056;-64
2023/09/30 10:48:25;;;;;;;24.10;15.98;;;;;;;17.21;100.00;102568.06;5068930;28;20112;-65
2023/09/30 10:50:55;;;;;;;25.40;16.00;;;;;;;17.24;100.00;102566.63;5064296;28;20100;-65
2023/09/30 10:53:21;;;;;;;26.08;15.85;;;;;;;17.31;100.00;102572.66;5058733;28;20448;-63
2023/09/30 10:55:54;;;;;;;24.35;15.93;;;;;;;17.31;100.00;102564.25;5066902;28;20066;-64
2023/09/30 10:58:19;;;;;;;26.88;15.77;;;;;;;17.39;100.00;102563.53;5062955;28;20106;-63
2023/09/30 11:00:54;;;;;;;25.90;16.40;;;;;;;17.44;100.00;102560.59;5059072;28;20346;-64
2023/09/30 11:03:21;;;;;;;23.45;15.70;;;;;;;17.51;100.00;102560.19;5059709;28;20032;-64